Time,TemperatureF,DewpointF,PressureIn,WindDirection,WindDirectionDegrees,WindSpeedMPH,WindSpeedGustMPH,Humidity,HourlyPrecipIn,Conditions,Clouds,dailyrainin,SoftwareType,DateUTC
2013-07-15 00:01:00,71.1,67.7,29.41,North,0,0.0,0.0,89,0.00,,BKN,0.00,VWS V14.01,2013-07-15 05:01:00,
2013-07-15 00:06:00,71.1,67.7,29.41,North,0,0.0,0.0,89,0.00,,BKN,0.00,VWS V14.01,2013-07-15 05:06:00,
2013-07-15 00:11:00,71.1,67.7,29.41,North,0,0.0,0.0,89,0.00,,BKN,0.00,VWS V14.01,2013-07-15 05:11:00,
2013-07-15 00:16:00,71.1,67.7,29.41,North,0,0.0,0.0,89,0.00,,BKN,0.00,VWS V14.01,2013-07-15 05:16:00,
2013-07-15 00:21:00,71.1,67.7,29.44,North,0,0.0,0.0,89,0.00,,BKN,0.00,VWS V14.01,2013-07-15 05:21:00,
2013-07-15 00:27:00,71.2,67.8,29.44,North,0,0.0,0.0,89,0.00,,BKN,0.00,VWS V14.01,2013-07-15 05:27:00,
2013-07-15 00:32:00,71.2,67.8,29.44,North,0,0.0,0.0,89,0.00,,BKN,0.00,VWS V14.01,2013-07-15 05:32:00,
2013-07-15 00:37:00,71.2,67.8,29.41,North,0,0.0,0.0,89,0.00,,BKN,0.00,VWS V14.01,2013-07-15 05:37:00,
2013-07-15 00:42:00,71.2,67.8,29.41,North,0,0.0,0.0,89,0.08,,BKN,0.08,VWS V14.01,2013-07-15 05:42:00,
2013-07-15 00:47:00,71.1,67.7,29.41,North,0,0.0,0.0,89,0.08,,BKN,0.08,VWS V14.01,2013-07-15 05:47:00,
2013-07-15 00:52:00,71.1,67.7,29.41,North,0,0.0,0.0,89,0.08,,BKN,0.08,VWS V14.01,2013-07-15 05:52:00,
2013-07-15 00:57:00,71.1,67.7,29.41,North,0,0.0,0.0,89,0.08,,BKN,0.08,VWS V14.01,2013-07-15 05:57:00,
2013-07-15 01:02:00,71.1,67.7,29.41,North,0,0.0,0.0,89,0.08,,BKN,0.08,VWS V14.01,2013-07-15 06:02:00,
2013-07-15 01:07:00,70.9,67.5,29.41,North,0,0.0,0.0,89,0.08,,BKN,0.08,VWS V14.01,2013-07-15 06:07:00,
2013-07-15 01:12:00,70.7,67.3,29.41,North,0,0.0,0.0,89,0.08,,BKN,0.08,VWS V14.01,2013-07-15 06:12:00,
2013-07-15 01:18:00,70.9,67.5,29.41,North,0,0.0,0.0,89,0.08,,BKN,0.08,VWS V14.01,2013-07-15 06:18:00,
2013-07-15 01:23:00,70.9,67.5,29.41,North,0,0.0,0.0,89,0.08,,BKN,0.08,VWS V14.01,2013-07-15 06:23:00,
2013-07-15 01:28:00,70.9,67.5,29.41,North,0,0.0,0.0,89,0.08,,BKN,0.08,VWS V14.01,2013-07-15 06:28:00,
2013-07-15 01:33:00,70.9,67.5,29.41,North,0,0.0,0.0,89,0.08,,BKN,0.08,VWS V14.01,2013-07-15 06:33:00,
2013-07-15 01:38:00,70.9,67.5,29.41,North,0,0.0,0.0,89,0.08,,BKN,0.08,VWS V14.01,2013-07-15 06:38:00,
2013-07-15 01:43:00,70.7,67.3,29.41,North,0,0.0,0.0,89,0.00,,BKN,0.08,VWS V14.01,2013-07-15 06:43:00,
2013-07-15 01:48:00,70.9,67.8,29.41,North,0,0.0,0.0,90,0.00,,BKN,0.08,VWS V14.01,2013-07-15 06:48:00,
2013-07-15 01:53:00,70.9,67.8,29.41,North,0,0.0,0.0,90,0.00,,BKN,0.08,VWS V14.01,2013-07-15 06:53:00,
2013-07-15 01:58:00,70.9,67.8,29.41,North,0,0.0,0.0,90,0.00,,BKN,0.08,VWS V14.01,2013-07-15 06:58:00,
2013-07-15 02:03:00,70.9,67.8,29.41,North,0,0.0,0.0,90,0.00,,BKN,0.08,VWS V14.01,2013-07-15 07:03:00,
2013-07-15 02:09:00,70.9,67.8,29.41,North,0,0.0,0.0,90,0.00,,BKN,0.08,VWS V14.01,2013-07-15 07:09:00,
2013-07-15 02:14:00,70.9,67.8,29.41,North,0,0.0,0.0,90,0.00,,BKN,0.08,VWS V14.01,2013-07-15 07:14:00,
2013-07-15 02:19:00,70.9,67.8,29.41,North,0,0.0,0.0,90,0.00,,BKN,0.08,VWS V14.01,2013-07-15 07:19:00,
2013-07-15 02:24:00,70.9,67.8,29.41,North,0,0.0,0.0,90,0.00,,BKN,0.08,VWS V14.01,2013-07-15 07:24:00,
2013-07-15 02:29:00,70.9,67.8,29.41,North,0,0.0,0.0,90,0.00,,BKN,0.08,VWS V14.01,2013-07-15 07:29:00,
2013-07-15 02:34:00,70.9,67.8,29.41,North,0,0.0,0.0,90,0.00,,BKN,0.08,VWS V14.01,2013-07-15 07:34:00,
2013-07-15 02:39:00,70.9,67.8,29.41,North,0,0.0,0.0,90,0.00,,BKN,0.08,VWS V14.01,2013-07-15 07:39:00,
2013-07-15 02:45:00,70.9,67.8,29.41,North,0,0.0,0.0,90,0.00,,BKN,0.08,VWS V14.01,2013-07-15 07:45:00,
2013-07-15 02:50:00,70.9,67.8,29.41,North,0,0.0,0.0,90,0.00,,BKN,0.08,VWS V14.01,2013-07-15 07:50:00,
2013-07-15 02:55:00,70.9,67.8,29.41,North,0,0.0,0.0,90,0.00,,BKN,0.08,VWS V14.01,2013-07-15 07:55:00,
2013-07-15 03:00:00,70.9,67.5,29.41,North,0,0.0,0.0,89,0.00,,BKN,0.08,VWS V14.01,2013-07-15 08:00:00,
2013-07-15 03:05:00,70.7,67.3,29.41,North,0,0.0,0.0,89,0.00,,BKN,0.08,VWS V14.01,2013-07-15 08:05:00,
2013-07-15 03:10:00,70.7,67.6,29.41,North,0,0.0,0.0,90,0.00,,BKN,0.08,VWS V14.01,2013-07-15 08:10:00,
2013-07-15 03:15:00,70.7,67.6,29.41,North,0,0.0,0.0,90,0.00,,BKN,0.08,VWS V14.01,2013-07-15 08:15:00,
2013-07-15 03:20:00,70.7,67.6,29.41,North,0,0.0,0.0,90,0.00,,BKN,0.08,VWS V14.01,2013-07-15 08:20:00,
2013-07-15 03:25:00,70.7,67.6,29.41,North,0,0.0,0.0,90,0.00,,BKN,0.08,VWS V14.01,2013-07-15 08:25:00,
2013-07-15 03:31:00,70.7,67.6,29.41,North,0,0.0,0.0,90,0.00,,BKN,0.08,VWS V14.01,2013-07-15 08:31:00,
2013-07-15 03:36:00,70.7,67.6,29.41,North,0,0.0,0.0,90,0.00,,BKN,0.08,VWS V14.01,2013-07-15 08:36:00,
2013-07-15 03:41:00,70.7,67.6,29.41,North,0,0.0,0.0,90,0.00,,BKN,0.08,VWS V14.01,2013-07-15 08:41:00,
2013-07-15 03:46:00,70.5,67.1,29.41,North,0,0.0,0.0,89,0.00,,BKN,0.08,VWS V14.01,2013-07-15 08:46:00,
2013-07-15 03:51:00,70.3,66.9,29.44,North,0,0.0,0.0,89,0.00,,BKN,0.08,VWS V14.01,2013-07-15 08:51:00,
2013-07-15 03:56:00,70.2,66.8,29.44,North,0,0.0,0.0,89,0.00,,BKN,0.08,VWS V14.01,2013-07-15 08:56:00,
2013-07-15 04:01:00,70.2,66.8,29.44,North,0,0.0,0.0,89,0.00,,BKN,0.08,VWS V14.01,2013-07-15 09:01:00,
2013-07-15 04:06:00,70.2,66.8,29.44,North,0,0.0,0.0,89,0.00,,BKN,0.08,VWS V14.01,2013-07-15 09:06:00,
2013-07-15 04:11:00,70.2,66.8,29.44,North,0,0.0,0.0,89,0.00,,BKN,0.08,VWS V14.01,2013-07-15 09:11:00,
2013-07-15 04:16:00,70.2,66.8,29.44,North,0,0.0,0.0,89,0.00,,BKN,0.08,VWS V14.01,2013-07-15 09:16:00,
2013-07-15 04:22:00,70.2,66.8,29.44,North,0,0.0,0.0,89,0.00,,BKN,0.08,VWS V14.01,2013-07-15 09:22:00,
2013-07-15 04:27:00,70.2,66.8,29.44,North,0,0.0,0.0,89,0.00,,BKN,0.08,VWS V14.01,2013-07-15 09:27:00,
2013-07-15 04:32:00,70.2,66.8,29.44,North,0,0.0,0.0,89,0.00,,BKN,0.08,VWS V14.01,2013-07-15 09:32:00,
2013-07-15 04:37:00,70.2,66.8,29.44,North,0,0.0,0.0,89,0.00,,BKN,0.08,VWS V14.01,2013-07-15 09:37:00,
2013-07-15 04:42:00,70.2,66.8,29.44,North,0,0.0,0.0,89,0.00,,BKN,0.08,VWS V14.01,2013-07-15 09:42:00,
2013-07-15 04:47:00,70.2,66.8,29.44,North,0,0.0,0.0,89,0.00,,BKN,0.08,VWS V14.01,2013-07-15 09:47:00,
2013-07-15 04:52:00,70.2,66.8,29.44,North,0,0.0,0.0,89,0.00,,BKN,0.08,VWS V14.01,2013-07-15 09:52:00,
2013-07-15 04:57:00,70.0,66.6,29.44,North,0,0.0,0.0,89,0.00,,BKN,0.08,VWS V14.01,2013-07-15 09:57:00,
2013-07-15 05:02:00,70.0,66.6,29.44,North,0,0.0,0.0,89,0.04,,BKN,0.12,VWS V14.01,2013-07-15 10:02:00,
2013-07-15 05:07:00,70.0,66.6,29.44,North,0,0.0,0.0,89,0.04,,BKN,0.12,VWS V14.01,2013-07-15 10:07:00,
2013-07-15 05:12:00,70.0,66.6,29.44,North,0,0.0,0.0,89,0.04,,BKN,0.12,VWS V14.01,2013-07-15 10:12:00,
2013-07-15 05:18:00,70.0,66.6,29.44,North,0,0.0,0.0,89,0.04,,BKN,0.12,VWS V14.01,2013-07-15 10:18:00,
2013-07-15 05:23:00,70.2,67.1,29.44,North,0,0.0,0.0,90,0.04,,BKN,0.12,VWS V14.01,2013-07-15 10:23:00,
2013-07-15 05:28:00,70.0,66.6,29.44,North,0,0.0,0.0,89,0.04,,BKN,0.12,VWS V14.01,2013-07-15 10:28:00,
2013-07-15 05:33:00,70.0,66.9,29.44,North,0,0.0,0.0,90,0.04,,BKN,0.12,VWS V14.01,2013-07-15 10:33:00,
2013-07-15 05:38:00,70.0,66.9,29.44,North,0,0.0,0.0,90,0.04,,BKN,0.12,VWS V14.01,2013-07-15 10:38:00,
2013-07-15 05:43:00,70.0,66.9,29.44,North,0,0.0,0.0,90,0.04,,BKN,0.12,VWS V14.01,2013-07-15 10:43:00,
2013-07-15 05:48:00,70.0,66.9,29.44,North,0,0.0,0.0,90,0.04,,BKN,0.12,VWS V14.01,2013-07-15 10:48:00,
2013-07-15 05:53:00,70.0,66.9,29.44,North,0,0.0,0.0,90,0.04,,BKN,0.12,VWS V14.01,2013-07-15 10:53:00,
2013-07-15 05:58:00,70.0,66.9,29.44,North,0,0.0,0.0,90,0.04,,BKN,0.12,VWS V14.01,2013-07-15 10:58:00,
2013-07-15 06:04:00,70.0,66.9,29.44,North,0,0.0,0.0,90,0.04,,BKN,0.12,VWS V14.01,2013-07-15 11:04:00,
2013-07-15 06:09:00,70.0,66.9,29.44,North,0,0.0,0.0,90,0.00,,BKN,0.12,VWS V14.01,2013-07-15 11:09:00,
2013-07-15 06:14:00,69.8,66.7,29.44,North,0,0.0,0.0,90,0.00,,BKN,0.12,VWS V14.01,2013-07-15 11:14:00,
2013-07-15 06:19:00,69.8,66.7,29.44,North,0,0.0,0.0,90,0.00,,BKN,0.12,VWS V14.01,2013-07-15 11:19:00,
2013-07-15 06:24:00,69.8,66.7,29.44,North,0,0.0,0.0,90,0.00,,BKN,0.12,VWS V14.01,2013-07-15 11:24:00,
2013-07-15 06:29:00,69.8,66.7,29.44,North,0,0.0,0.0,90,0.00,,BKN,0.12,VWS V14.01,2013-07-15 11:29:00,
2013-07-15 06:34:00,69.8,66.7,29.44,North,0,0.0,0.0,90,0.00,,BKN,0.12,VWS V14.01,2013-07-15 11:34:00,
2013-07-15 06:39:00,69.8,66.7,29.44,North,0,0.0,0.0,90,0.00,,BKN,0.12,VWS V14.01,2013-07-15 11:39:00,
2013-07-15 06:44:00,69.8,66.7,29.44,North,0,0.0,0.0,90,0.00,,BKN,0.12,VWS V14.01,2013-07-15 11:44:00,
2013-07-15 06:49:00,69.8,66.7,29.44,North,0,0.0,0.0,90,0.00,,BKN,0.12,VWS V14.01,2013-07-15 11:49:00,
2013-07-15 06:55:00,69.8,66.7,29.44,North,0,0.0,0.0,90,0.00,,BKN,0.12,VWS V14.01,2013-07-15 11:55:00,
2013-07-15 07:00:00,69.8,66.7,29.44,North,0,0.0,0.0,90,0.00,,BKN,0.12,VWS V14.01,2013-07-15 12:00:00,
2013-07-15 07:05:00,70.0,66.9,29.44,North,0,0.0,0.0,90,0.04,,BKN,0.16,VWS V14.01,2013-07-15 12:05:00,
2013-07-15 07:10:00,70.0,66.9,29.44,North,0,0.0,0.0,90,0.04,,BKN,0.16,VWS V14.01,2013-07-15 12:10:00,
2013-07-15 07:15:00,70.0,66.9,29.44,North,0,0.0,0.0,90,0.04,,BKN,0.16,VWS V14.01,2013-07-15 12:15:00,
2013-07-15 07:20:00,70.0,66.9,29.44,North,0,0.0,0.0,90,0.04,,BKN,0.16,VWS V14.01,2013-07-15 12:20:00,
2013-07-15 07:25:00,70.0,66.9,29.44,North,0,0.0,0.0,90,0.04,,BKN,0.16,VWS V14.01,2013-07-15 12:25:00,
2013-07-15 07:30:00,70.0,66.9,29.44,North,0,0.0,0.0,90,0.04,,BKN,0.16,VWS V14.01,2013-07-15 12:30:00,
2013-07-15 07:35:00,70.0,66.9,29.44,North,0,0.0,0.0,90,0.08,,BKN,0.20,VWS V14.01,2013-07-15 12:35:00,
2013-07-15 07:40:00,70.0,66.9,29.44,North,0,0.0,0.0,90,0.08,,BKN,0.20,VWS V14.01,2013-07-15 12:40:00,
2013-07-15 07:45:00,70.0,66.9,29.44,North,0,0.0,0.0,90,0.08,,BKN,0.20,VWS V14.01,2013-07-15 12:45:00,
2013-07-15 07:50:00,70.0,66.9,29.44,North,0,0.0,0.0,90,0.08,,BKN,0.20,VWS V14.01,2013-07-15 12:50:00,
2013-07-15 07:56:00,70.0,66.9,29.44,North,0,0.0,0.0,90,0.08,,BKN,0.20,VWS V14.01,2013-07-15 12:56:00,
2013-07-15 08:01:00,70.0,66.9,29.44,North,0,0.0,0.0,90,0.08,,BKN,0.20,VWS V14.01,2013-07-15 13:01:00,
2013-07-15 08:06:00,70.0,66.9,29.44,North,0,0.0,0.0,90,0.04,,BKN,0.20,VWS V14.01,2013-07-15 13:06:00,
2013-07-15 08:11:00,70.0,66.9,29.44,North,0,0.0,0.0,90,0.04,,BKN,0.20,VWS V14.01,2013-07-15 13:11:00,
2013-07-15 08:16:00,70.0,67.2,29.44,North,0,0.0,0.0,91,0.04,,BKN,0.20,VWS V14.01,2013-07-15 13:16:00,
2013-07-15 08:21:00,70.2,67.4,29.44,North,0,0.0,0.0,91,0.04,,BKN,0.20,VWS V14.01,2013-07-15 13:21:00,
2013-07-15 08:27:00,70.0,67.2,29.44,North,0,0.0,0.0,91,0.08,,BKN,0.24,VWS V14.01,2013-07-15 13:27:00,
2013-07-15 08:32:00,70.0,67.2,29.44,North,0,0.0,0.0,91,0.08,,BKN,0.24,VWS V14.01,2013-07-15 13:32:00,
2013-07-15 08:37:00,70.3,67.6,29.44,North,0,0.0,0.0,91,0.04,,BKN,0.24,VWS V14.01,2013-07-15 13:37:00,
2013-07-15 08:42:00,70.5,67.8,29.44,North,0,0.0,0.0,91,0.04,,BKN,0.24,VWS V14.01,2013-07-15 13:42:00,